createdAt,value
2022-11-30T00:00:08.486Z,4.98
2022-11-30T00:01:08.476Z,4.98
2022-11-30T00:02:08.498Z,4.98
2022-11-30T00:03:08.593Z,4.96
2022-11-30T00:04:08.445Z,4.96
2022-11-30T00:05:08.414Z,4.96
2022-11-30T00:06:08.458Z,4.94
2022-11-30T00:07:08.385Z,4.92
2022-11-30T00:08:08.403Z,4.88
2022-11-30T00:09:08.354Z,4.86
2022-11-30T00:10:08.355Z,4.88
2022-11-30T00:11:08.332Z,4.88
2022-11-30T00:12:08.344Z,4.89
2022-11-30T00:13:08.303Z,4.88
2022-11-30T00:14:08.294Z,4.84
2022-11-30T00:15:08.274Z,4.88
2022-11-30T00:16:08.295Z,4.88
2022-11-30T00:17:08.275Z,4.89
2022-11-30T00:18:08.279Z,4.88
2022-11-30T00:19:08.236Z,4.86
2022-11-30T00:20:08.276Z,4.89
2022-11-30T00:21:08.208Z,4.89
2022-11-30T00:22:08.205Z,4.86
2022-11-30T00:23:08.185Z,4.83
2022-11-30T00:24:08.164Z,4.84
2022-11-30T00:25:08.143Z,4.86
2022-11-30T00:26:08.164Z,4.86
2022-11-30T00:27:08.124Z,4.86
2022-11-30T00:28:08.123Z,4.88
2022-11-30T00:29:08.134Z,4.86
2022-11-30T00:30:08.103Z,4.84
2022-11-30T00:31:08.163Z,4.84
2022-11-30T00:32:08.082Z,4.86
2022-11-30T00:33:08.064Z,4.84
2022-11-30T00:34:08.136Z,4.84
2022-11-30T00:35:08.036Z,4.84
2022-11-30T00:36:08.027Z,4.83
2022-11-30T00:37:08.016Z,4.83
2022-11-30T00:38:08.005Z,4.83
2022-11-30T00:39:07.975Z,4.83
2022-11-30T00:40:07.984Z,4.84
2022-11-30T00:41:07.963Z,4.84
2022-11-30T00:42:07.942Z,4.83
2022-11-30T00:43:07.923Z,4.80
2022-11-30T00:44:07.924Z,4.79
2022-11-30T00:45:07.926Z,4.77
2022-11-30T00:46:07.935Z,4.75
2022-11-30T00:47:07.878Z,4.76
2022-11-30T00:48:07.874Z,4.76
2022-11-30T00:49:07.846Z,4.75
2022-11-30T00:50:07.852Z,4.77
2022-11-30T00:51:07.813Z,4.76
2022-11-30T00:52:07.836Z,4.77
2022-11-30T00:53:07.794Z,4.77
2022-11-30T00:54:07.793Z,4.77
2022-11-30T00:55:07.802Z,4.79
2022-11-30T00:56:07.764Z,4.80
2022-11-30T00:57:07.764Z,4.80
2022-11-30T00:58:07.744Z,4.79
2022-11-30T00:59:07.725Z,4.79
2022-11-30T01:00:07.714Z,4.80
2022-11-30T01:01:07.762Z,4.80
2022-11-30T01:02:07.748Z,4.80
2022-11-30T01:03:07.685Z,4.80
2022-11-30T01:04:07.673Z,4.80
2022-11-30T01:05:07.642Z,4.84
2022-11-30T01:06:07.643Z,4.83
2022-11-30T01:07:07.612Z,4.83
2022-11-30T01:08:07.652Z,4.83
2022-11-30T01:09:07.592Z,4.84
2022-11-30T01:10:07.585Z,4.79
2022-11-30T01:11:07.562Z,4.83
2022-11-30T01:12:07.574Z,4.80
2022-11-30T01:13:07.557Z,4.80
2022-11-30T01:14:07.555Z,4.83
2022-11-30T01:15:07.515Z,4.83
2022-11-30T01:16:07.534Z,4.79
2022-11-30T01:17:07.495Z,4.76
2022-11-30T01:18:07.495Z,4.77
2022-11-30T01:19:07.476Z,4.77
2022-11-30T01:20:07.472Z,4.77
2022-11-30T01:21:07.437Z,4.79
2022-11-30T01:22:07.435Z,4.77
2022-11-30T01:23:07.440Z,4.79
2022-11-30T01:24:07.412Z,4.79
2022-11-30T01:25:07.387Z,4.77
2022-11-30T01:26:07.392Z,4.79
2022-11-30T01:27:07.364Z,4.76
2022-11-30T01:28:07.383Z,4.77
2022-11-30T01:29:07.395Z,4.77
2022-11-30T01:30:07.402Z,4.76
2022-11-30T01:31:07.353Z,4.75
2022-11-30T01:32:07.314Z,4.77
2022-11-30T01:33:07.293Z,4.80
2022-11-30T01:34:07.305Z,4.80
2022-11-30T01:35:14.293Z,4.79
2022-11-30T01:36:07.269Z,4.83
2022-11-30T01:37:07.244Z,4.77
2022-11-30T01:38:07.232Z,4.80
2022-11-30T01:39:07.223Z,4.84
2022-11-30T01:40:07.200Z,4.79
2022-11-30T01:41:07.208Z,4.76
2022-11-30T01:42:07.193Z,4.76
2022-11-30T01:43:07.165Z,4.77
2022-11-30T01:44:07.191Z,4.79
2022-11-30T01:45:07.148Z,4.77
2022-11-30T01:46:07.235Z,4.76
2022-11-30T01:47:07.168Z,4.75
2022-11-30T01:48:07.097Z,4.73
2022-11-30T01:49:07.099Z,4.70
2022-11-30T01:50:07.073Z,4.73
2022-11-30T01:51:07.084Z,4.75
2022-11-30T01:52:07.073Z,4.75
2022-11-30T01:53:07.045Z,4.75
2022-11-30T01:54:07.024Z,4.76
2022-11-30T01:55:07.024Z,4.76
2022-11-30T01:56:07.003Z,4.73
2022-11-30T01:57:07.004Z,4.76
2022-11-30T01:58:06.994Z,4.75
2022-11-30T01:59:06.974Z,4.72
2022-11-30T02:00:06.945Z,4.72
2022-11-30T02:01:06.977Z,4.73
2022-11-30T02:02:07.049Z,4.73
2022-11-30T02:03:06.935Z,4.73
2022-11-30T02:04:06.895Z,4.73
2022-11-30T02:05:06.888Z,4.73
2022-11-30T02:06:06.878Z,4.73
2022-11-30T02:07:06.932Z,4.75
2022-11-30T02:08:06.976Z,4.73
2022-11-30T02:09:06.873Z,4.75
2022-11-30T02:10:06.812Z,4.73
2022-11-30T02:11:06.831Z,4.73
2022-11-30T02:12:06.825Z,4.70
2022-11-30T02:13:06.793Z,4.70
2022-11-30T02:14:06.785Z,4.69
2022-11-30T02:15:06.774Z,4.69
2022-11-30T02:16:06.808Z,4.69
2022-11-30T02:17:06.744Z,4.69
2022-11-30T02:18:06.728Z,4.70
2022-11-30T02:19:06.872Z,4.69
2022-11-30T02:20:06.695Z,4.69
2022-11-30T02:21:06.717Z,4.67
2022-11-30T02:22:06.665Z,4.67
2022-11-30T02:23:06.683Z,4.69
2022-11-30T02:24:06.633Z,4.69
2022-11-30T02:25:06.641Z,4.67
2022-11-30T02:26:06.632Z,4.69
2022-11-30T02:27:06.632Z,4.69
2022-11-30T02:28:06.593Z,4.70
2022-11-30T02:29:06.582Z,4.70
2022-11-30T02:30:06.614Z,4.72
2022-11-30T02:31:06.641Z,4.72
2022-11-30T02:32:06.551Z,4.69
2022-11-30T02:33:06.558Z,4.64
2022-11-30T02:34:06.516Z,4.65
2022-11-30T02:35:06.544Z,4.65
2022-11-30T02:36:06.486Z,4.69
2022-11-30T02:37:06.534Z,4.65
2022-11-30T02:38:06.472Z,4.64
2022-11-30T02:39:06.453Z,4.64
2022-11-30T02:40:06.434Z,4.65
2022-11-30T02:41:06.457Z,4.67
2022-11-30T02:42:06.413Z,4.67
2022-11-30T02:43:06.413Z,4.69
2022-11-30T02:44:06.411Z,4.67
2022-11-30T02:45:06.405Z,4.67
2022-11-30T02:46:06.440Z,4.67
2022-11-30T02:47:06.374Z,4.67
2022-11-30T02:48:06.335Z,4.67
2022-11-30T02:49:06.336Z,4.69
2022-11-30T02:50:06.302Z,4.69
2022-11-30T02:51:06.308Z,4.65
2022-11-30T02:52:06.298Z,4.65
2022-11-30T02:53:06.305Z,4.65
2022-11-30T02:54:06.255Z,4.67
2022-11-30T02:55:06.291Z,4.67
2022-11-30T02:56:06.236Z,4.67
2022-11-30T02:57:06.241Z,4.65
2022-11-30T02:58:06.224Z,4.67
2022-11-30T02:59:06.234Z,4.67
2022-11-30T03:00:06.193Z,4.65
2022-11-30T03:01:06.316Z,4.67
2022-11-30T03:02:06.174Z,4.65
2022-11-30T03:03:06.278Z,4.64
2022-11-30T03:04:06.142Z,4.65
2022-11-30T03:05:06.164Z,4.65
2022-11-30T03:06:06.112Z,4.65
2022-11-30T03:07:06.100Z,4.65
2022-11-30T03:08:06.072Z,4.65
2022-11-30T03:09:06.092Z,4.65
2022-11-30T03:10:06.081Z,4.64
2022-11-30T03:11:06.055Z,4.64
2022-11-30T03:12:06.049Z,4.62
2022-11-30T03:13:06.026Z,4.62
2022-11-30T03:14:06.016Z,4.61
2022-11-30T03:15:05.995Z,4.62
2022-11-30T03:16:05.993Z,4.61
2022-11-30T03:17:05.985Z,4.61
2022-11-30T03:18:05.975Z,4.59
2022-11-30T03:19:05.954Z,4.61
2022-11-30T03:20:05.924Z,4.61
2022-11-30T03:21:05.930Z,4.59
2022-11-30T03:22:05.913Z,4.59
2022-11-30T03:23:05.905Z,4.61
2022-11-30T03:24:05.909Z,4.61
2022-11-30T03:25:05.884Z,4.61
2022-11-30T03:26:05.845Z,4.61
2022-11-30T03:27:05.857Z,4.62
2022-11-30T03:28:05.852Z,4.62
2022-11-30T03:29:05.865Z,4.62
2022-11-30T03:30:05.829Z,4.62
2022-11-30T03:31:05.857Z,4.62
2022-11-30T03:32:05.815Z,4.62
2022-11-30T03:33:05.784Z,4.62
2022-11-30T03:34:05.743Z,4.64
2022-11-30T03:35:05.766Z,4.64
2022-11-30T03:36:05.718Z,4.62
2022-11-30T03:37:05.717Z,4.61
2022-11-30T03:38:05.711Z,4.61
2022-11-30T03:39:05.697Z,4.61
2022-11-30T03:40:05.673Z,4.61
2022-11-30T03:41:05.674Z,4.62
2022-11-30T03:42:05.670Z,4.61
2022-11-30T03:43:05.644Z,4.61
2022-11-30T03:44:05.625Z,4.61
2022-11-30T03:45:05.644Z,4.62
2022-11-30T03:46:05.662Z,4.64
2022-11-30T03:47:05.611Z,4.61
2022-11-30T03:48:05.567Z,4.61
2022-11-30T03:49:05.603Z,4.59
2022-11-30T03:50:05.544Z,4.61
2022-11-30T03:51:05.546Z,4.61
2022-11-30T03:52:05.528Z,4.62
2022-11-30T03:53:05.558Z,4.61
2022-11-30T03:54:05.497Z,4.62
2022-11-30T03:55:05.494Z,4.61
2022-11-30T03:56:05.476Z,4.59
2022-11-30T03:57:05.476Z,4.58
2022-11-30T03:58:05.443Z,4.58
2022-11-30T03:59:05.453Z,4.58
2022-11-30T04:00:05.413Z,4.58
2022-11-30T04:01:05.507Z,4.58
2022-11-30T04:02:05.430Z,4.57
2022-11-30T04:03:05.463Z,4.57
2022-11-30T04:04:05.354Z,4.55
2022-11-30T04:05:11.174Z,4.57
2022-11-30T04:06:05.363Z,4.54
2022-11-30T04:07:05.354Z,4.57
2022-11-30T04:08:05.355Z,4.55
2022-11-30T04:09:05.331Z,4.57
2022-11-30T04:10:08.512Z,4.58
2022-11-30T04:11:05.304Z,4.55
2022-11-30T04:12:05.285Z,4.54
2022-11-30T04:13:05.310Z,4.54
2022-11-30T04:14:05.254Z,4.54
2022-11-30T04:15:05.253Z,4.54
2022-11-30T04:16:05.291Z,4.52
2022-11-30T04:17:05.268Z,4.52
2022-11-30T04:18:05.201Z,4.51
2022-11-30T04:19:05.206Z,4.52
2022-11-30T04:20:05.172Z,4.51
2022-11-30T04:21:05.153Z,4.52
2022-11-30T04:22:05.133Z,4.52
2022-11-30T04:23:05.170Z,4.50
2022-11-30T04:24:05.144Z,4.47
2022-11-30T04:25:05.164Z,4.46
2022-11-30T04:26:05.142Z,4.43
2022-11-30T04:27:05.089Z,4.46
2022-11-30T04:28:05.074Z,4.44
2022-11-30T04:29:05.094Z,4.44
2022-11-30T04:30:05.089Z,4.44
2022-11-30T04:31:05.082Z,4.46
2022-11-30T04:32:05.037Z,4.43
2022-11-30T04:33:05.052Z,4.44
2022-11-30T04:34:04.993Z,4.43
2022-11-30T04:35:05.002Z,4.43
2022-11-30T04:36:05.006Z,4.43
2022-11-30T04:37:04.954Z,4.43
2022-11-30T04:38:04.974Z,4.40
2022-11-30T04:39:04.937Z,4.42
2022-11-30T04:40:04.936Z,4.40
2022-11-30T04:41:04.903Z,4.40
2022-11-30T04:42:04.882Z,4.39
2022-11-30T04:43:04.883Z,4.39
2022-11-30T04:44:04.871Z,4.37
2022-11-30T04:45:04.872Z,4.39
2022-11-30T04:46:04.839Z,4.40
2022-11-30T04:47:04.849Z,4.40
2022-11-30T04:48:04.810Z,4.42
2022-11-30T04:49:04.812Z,4.42
2022-11-30T04:50:04.792Z,4.42
2022-11-30T04:51:04.791Z,4.43
2022-11-30T04:52:04.772Z,4.42
2022-11-30T04:53:04.773Z,4.42
2022-11-30T04:54:04.741Z,4.40
2022-11-30T04:55:04.762Z,4.40
2022-11-30T04:56:04.729Z,4.43
2022-11-30T04:57:04.713Z,4.42
2022-11-30T04:58:04.681Z,4.40
2022-11-30T04:59:04.670Z,4.40
2022-11-30T05:00:04.668Z,4.39
2022-11-30T05:01:04.660Z,4.40
2022-11-30T05:02:04.707Z,4.40
2022-11-30T05:03:04.646Z,4.37
2022-11-30T05:04:04.785Z,4.39
2022-11-30T05:05:04.632Z,4.37
2022-11-30T05:06:04.573Z,4.39
2022-11-30T05:07:04.573Z,4.39
2022-11-30T05:08:04.553Z,4.39
2022-11-30T05:09:04.562Z,4.40
2022-11-30T05:10:04.511Z,4.40
2022-11-30T05:11:04.517Z,4.40
2022-11-30T05:12:04.495Z,4.40
2022-11-30T05:13:04.490Z,4.40
2022-11-30T05:14:04.472Z,4.42
2022-11-30T05:15:04.480Z,4.39
2022-11-30T05:16:04.478Z,4.39
2022-11-30T05:17:04.435Z,4.36
2022-11-30T05:18:04.417Z,4.37
2022-11-30T05:19:04.421Z,4.36
2022-11-30T05:20:04.395Z,4.39
2022-11-30T05:21:04.469Z,4.37
2022-11-30T05:22:04.385Z,4.37
2022-11-30T05:23:04.384Z,4.36
2022-11-30T05:24:04.378Z,4.36
2022-11-30T05:25:04.378Z,4.36
2022-11-30T05:26:04.320Z,4.36
2022-11-30T05:27:09.181Z,4.37
2022-11-30T05:28:05.319Z,4.37
2022-11-30T05:29:04.281Z,4.39
2022-11-30T05:30:04.319Z,4.37
2022-11-30T05:31:04.312Z,4.39
2022-11-30T05:32:04.259Z,4.39
2022-11-30T05:33:04.341Z,4.39
2022-11-30T05:34:04.362Z,4.37
2022-11-30T05:35:04.230Z,4.37
2022-11-30T05:36:10.221Z,4.37
2022-11-30T05:37:05.284Z,4.39
2022-11-30T05:38:04.212Z,4.39
2022-11-30T05:39:04.382Z,4.39
2022-11-30T05:40:04.282Z,4.40
2022-11-30T05:41:04.495Z,4.40
2022-11-30T05:42:04.121Z,4.36
2022-11-30T05:43:04.153Z,4.36
2022-11-30T05:44:04.101Z,4.36
2022-11-30T05:45:04.110Z,4.37
2022-11-30T05:46:04.081Z,4.39
2022-11-30T05:47:04.115Z,4.37
2022-11-30T05:48:04.051Z,4.36
2022-11-30T05:49:04.021Z,4.37
2022-11-30T05:50:04.051Z,4.40
2022-11-30T05:51:04.039Z,4.37
2022-11-30T05:52:03.980Z,4.37
2022-11-30T05:53:03.971Z,4.39
2022-11-30T05:54:03.982Z,4.37
2022-11-30T05:55:03.955Z,4.36
2022-11-30T05:56:03.954Z,4.36
2022-11-30T05:57:03.956Z,4.34
2022-11-30T05:58:03.919Z,4.34
2022-11-30T05:59:03.925Z,4.37
2022-11-30T06:00:04.359Z,4.34
2022-11-30T06:01:03.882Z,4.33
2022-11-30T06:02:04.054Z,4.33
2022-11-30T06:03:03.910Z,4.36
2022-11-30T06:04:08.521Z,4.36
2022-11-30T06:05:04.872Z,4.37
2022-11-30T06:06:03.809Z,4.37
2022-11-30T06:07:03.811Z,4.37
2022-11-30T06:08:03.801Z,4.39
2022-11-30T06:09:03.773Z,4.39
2022-11-30T06:10:03.770Z,4.39
2022-11-30T06:11:03.732Z,4.39
2022-11-30T06:12:03.733Z,4.36
2022-11-30T06:13:03.730Z,4.36
2022-11-30T06:14:03.805Z,4.37
2022-11-30T06:15:03.719Z,4.36
2022-11-30T06:16:03.768Z,4.37
2022-11-30T06:17:03.671Z,4.34
2022-11-30T06:18:03.654Z,4.36
2022-11-30T06:19:03.643Z,4.37
2022-11-30T06:20:03.654Z,4.36
2022-11-30T06:21:03.712Z,4.34
2022-11-30T06:22:03.634Z,4.36
2022-11-30T06:23:03.582Z,4.36
2022-11-30T06:24:03.580Z,4.36
2022-11-30T06:25:03.570Z,4.34
2022-11-30T06:26:03.596Z,4.34
2022-11-30T06:27:03.541Z,4.33
2022-11-30T06:28:03.552Z,4.33
2022-11-30T06:29:03.513Z,4.33
2022-11-30T06:30:03.521Z,4.32
2022-11-30T06:31:03.499Z,4.33
2022-11-30T06:32:03.534Z,4.32
2022-11-30T06:33:03.531Z,4.33
2022-11-30T06:34:03.462Z,4.33
2022-11-30T06:35:03.492Z,4.34
2022-11-30T06:36:03.471Z,4.34
2022-11-30T06:37:03.782Z,4.36
2022-11-30T06:38:03.388Z,4.36
2022-11-30T06:39:03.389Z,4.36
2022-11-30T06:40:07.790Z,4.39
2022-11-30T06:41:03.399Z,4.39
2022-11-30T06:42:03.363Z,4.39
2022-11-30T06:43:03.330Z,4.39
2022-11-30T06:44:03.335Z,4.39
2022-11-30T06:45:03.329Z,4.42
2022-11-30T06:46:03.373Z,4.42
2022-11-30T06:47:03.300Z,4.40
2022-11-30T06:48:03.281Z,4.40
2022-11-30T06:49:03.251Z,4.42
2022-11-30T06:50:03.250Z,4.42
2022-11-30T06:51:03.241Z,4.40
2022-11-30T06:52:03.241Z,4.40
2022-11-30T06:53:03.229Z,4.39
2022-11-30T06:54:03.204Z,4.39
2022-11-30T06:55:03.189Z,4.39
2022-11-30T06:56:09.434Z,4.39
2022-11-30T06:57:04.156Z,4.37
2022-11-30T06:58:03.139Z,4.37
2022-11-30T06:59:03.128Z,4.34
2022-11-30T07:00:03.143Z,4.37
2022-11-30T07:01:03.128Z,4.33
2022-11-30T07:02:08.851Z,4.36
2022-11-30T07:03:04.069Z,4.36
2022-11-30T07:04:03.220Z,4.37
2022-11-30T07:05:03.060Z,4.39
2022-11-30T07:06:03.050Z,4.39
2022-11-30T07:07:03.031Z,4.39
2022-11-30T07:08:03.095Z,4.39
2022-11-30T07:09:03.045Z,4.40
2022-11-30T07:10:02.998Z,4.37
2022-11-30T07:11:02.971Z,4.39
2022-11-30T07:12:02.987Z,4.40
2022-11-30T07:13:02.940Z,4.42
2022-11-30T07:14:03.069Z,4.42
2022-11-30T07:15:02.925Z,4.40
2022-11-30T07:16:02.987Z,4.42
2022-11-30T07:17:02.890Z,4.42
2022-11-30T07:18:02.887Z,4.42
2022-11-30T07:19:02.935Z,4.42
2022-11-30T07:20:02.879Z,4.42
2022-11-30T07:21:02.837Z,4.42
2022-11-30T07:22:02.871Z,4.43
2022-11-30T07:23:02.828Z,4.42
2022-11-30T07:24:02.839Z,4.43
2022-11-30T07:25:02.831Z,4.39
2022-11-30T07:26:02.874Z,4.40
2022-11-30T07:27:02.790Z,4.40
2022-11-30T07:28:02.802Z,4.40
2022-11-30T07:29:02.840Z,4.42
2022-11-30T07:30:02.739Z,4.43
2022-11-30T07:31:02.736Z,4.43
2022-11-30T07:32:02.787Z,4.46
2022-11-30T07:33:02.680Z,4.46
2022-11-30T07:34:02.681Z,4.46
2022-11-30T07:35:09.777Z,4.47
2022-11-30T07:36:02.796Z,4.47
2022-11-30T07:37:02.636Z,4.47
2022-11-30T07:38:08.223Z,4.50
2022-11-30T07:39:03.612Z,4.51
2022-11-30T07:40:02.613Z,4.50
2022-11-30T07:41:02.587Z,4.50
2022-11-30T07:42:02.606Z,4.51
2022-11-30T07:43:02.559Z,4.52
2022-11-30T07:44:02.560Z,4.52
2022-11-30T07:45:02.529Z,4.54
2022-11-30T07:46:02.549Z,4.55
2022-11-30T07:47:02.510Z,4.58
2022-11-30T07:48:02.515Z,4.58
2022-11-30T07:49:02.487Z,4.59
2022-11-30T07:50:02.477Z,4.62
2022-11-30T07:51:02.447Z,4.61
2022-11-30T07:52:02.446Z,4.61
2022-11-30T07:53:02.426Z,4.59
2022-11-30T07:54:02.436Z,4.62
2022-11-30T07:55:02.396Z,4.64
2022-11-30T07:56:02.408Z,4.59
2022-11-30T07:57:02.388Z,4.61
2022-11-30T07:58:02.381Z,4.61
2022-11-30T07:59:02.368Z,4.64
2022-11-30T08:00:02.360Z,4.62
2022-11-30T08:01:02.529Z,4.64
2022-11-30T08:02:02.453Z,4.65
2022-11-30T08:03:02.308Z,4.65
2022-11-30T08:04:02.446Z,4.67
2022-11-30T08:05:02.340Z,4.67
2022-11-30T08:06:02.272Z,4.67
2022-11-30T08:07:02.246Z,4.69
2022-11-30T08:08:02.328Z,4.69
2022-11-30T08:09:02.254Z,4.70
2022-11-30T08:10:02.229Z,4.69
2022-11-30T08:11:02.217Z,4.72
2022-11-30T08:12:02.190Z,4.72
2022-11-30T08:13:02.166Z,4.76
2022-11-30T08:14:02.169Z,4.77
2022-11-30T08:16:03.142Z,4.79
2022-11-30T08:17:02.150Z,4.79
2022-11-30T08:18:02.116Z,4.80
2022-11-30T08:19:02.107Z,4.83
2022-11-30T08:20:02.098Z,4.88
2022-11-30T08:21:02.088Z,4.88
2022-11-30T08:22:02.079Z,4.88
2022-11-30T08:23:02.049Z,4.91
2022-11-30T08:24:02.216Z,4.92
2022-11-30T08:25:02.023Z,4.95
2022-11-30T08:26:02.789Z,4.94
2022-11-30T08:27:02.039Z,4.96
2022-11-30T08:28:01.995Z,4.96
2022-11-30T08:29:01.994Z,4.96
2022-11-30T08:30:01.976Z,5.01
2022-11-30T08:31:01.964Z,5.02
2022-11-30T08:32:01.939Z,5.02
2022-11-30T08:33:01.935Z,5.01
2022-11-30T08:34:01.917Z,4.99
2022-11-30T08:35:01.885Z,5.04
2022-11-30T08:36:01.908Z,5.04
2022-11-30T08:37:01.868Z,5.05
2022-11-30T08:38:01.874Z,5.07
2022-11-30T08:39:01.867Z,5.09
2022-11-30T08:40:01.840Z,5.10
2022-11-30T08:41:01.818Z,5.10
2022-11-30T08:42:01.816Z,5.10
2022-11-30T08:43:01.799Z,5.09
2022-11-30T08:44:01.796Z,5.09
2022-11-30T08:45:02.168Z,5.12
2022-11-30T08:46:01.825Z,5.12
2022-11-30T08:47:01.767Z,5.12
2022-11-30T08:48:01.736Z,5.12
2022-11-30T08:49:20.365Z,5.12
2022-11-30T08:50:02.725Z,5.12
2022-11-30T08:51:01.696Z,5.12
2022-11-30T08:52:17.102Z,5.14
2022-11-30T08:53:06.408Z,5.17
2022-11-30T08:54:01.668Z,5.19
2022-11-30T08:55:01.656Z,5.20
2022-11-30T08:56:01.659Z,5.20
2022-11-30T08:57:01.618Z,5.19
2022-11-30T08:58:01.617Z,5.20
2022-11-30T08:59:01.597Z,5.23
2022-11-30T09:00:01.595Z,5.23
2022-11-30T09:01:01.566Z,5.23
2022-11-30T09:02:01.575Z,5.22
2022-11-30T09:03:01.597Z,5.23
2022-11-30T09:04:01.538Z,5.22
2022-11-30T09:05:01.516Z,5.23
2022-11-30T09:06:01.505Z,5.28
2022-11-30T09:07:01.475Z,5.28
2022-11-30T09:08:01.549Z,5.30
2022-11-30T09:09:01.478Z,5.30
2022-11-30T09:10:01.457Z,5.34
2022-11-30T09:11:01.438Z,5.32
2022-11-30T09:12:01.426Z,5.34
2022-11-30T09:13:01.426Z,5.35
2022-11-30T09:14:01.405Z,5.38
2022-11-30T09:15:01.539Z,5.45
2022-11-30T09:16:01.409Z,5.46
2022-11-30T09:17:01.358Z,5.46
2022-11-30T09:18:01.357Z,5.46
2022-11-30T09:19:01.348Z,5.49
2022-11-30T09:20:01.337Z,5.50
2022-11-30T09:21:01.308Z,5.53
2022-11-30T09:22:01.312Z,5.56
2022-11-30T09:23:01.299Z,5.55
2022-11-30T09:24:01.276Z,5.59
2022-11-30T09:25:01.257Z,5.64
2022-11-30T09:26:01.256Z,5.66
2022-11-30T09:27:01.256Z,5.67
2022-11-30T09:28:01.266Z,5.68
2022-11-30T09:29:01.224Z,5.70
2022-11-30T09:30:01.207Z,5.74
2022-11-30T09:31:01.235Z,5.78
2022-11-30T09:32:01.197Z,5.81
2022-11-30T09:33:01.235Z,5.83
2022-11-30T09:34:01.158Z,5.85
2022-11-30T09:35:01.128Z,5.88
2022-11-30T09:36:01.128Z,5.86
2022-11-30T09:37:01.109Z,5.89
2022-11-30T09:38:01.106Z,5.92
2022-11-30T09:39:01.123Z,5.92
2022-11-30T09:40:01.068Z,5.95
2022-11-30T09:41:01.045Z,5.95
2022-11-30T09:42:01.046Z,5.98
2022-11-30T09:43:01.027Z,6.03
2022-11-30T09:44:01.025Z,6.03
2022-11-30T09:45:01.017Z,6.07
2022-11-30T09:46:01.019Z,6.09
2022-11-30T09:47:00.976Z,6.07
2022-11-30T09:48:00.978Z,6.06
2022-11-30T09:49:00.957Z,6.09
2022-11-30T09:50:00.966Z,6.07
2022-11-30T09:51:00.928Z,6.11
2022-11-30T09:52:00.930Z,6.11
2022-11-30T09:53:00.908Z,6.13
2022-11-30T09:54:00.898Z,6.14
2022-11-30T09:55:00.883Z,6.21
2022-11-30T09:56:00.897Z,6.16
2022-11-30T09:57:01.659Z,6.18
2022-11-30T09:58:00.864Z,6.21
2022-11-30T09:59:00.817Z,6.21
2022-11-30T10:00:00.817Z,6.21
2022-11-30T10:01:05.156Z,6.25
2022-11-30T10:02:01.832Z,6.26
2022-11-30T10:03:00.816Z,6.30
2022-11-30T10:04:00.768Z,6.33
2022-11-30T10:05:00.749Z,6.33
2022-11-30T10:06:00.749Z,6.33
2022-11-30T10:07:00.727Z,6.36
2022-11-30T10:08:00.800Z,6.36
2022-11-30T10:09:00.700Z,6.32
2022-11-30T10:11:01.682Z,6.33
2022-11-30T10:12:00.672Z,6.36
2022-11-30T10:13:00.637Z,6.38
2022-11-30T10:14:00.642Z,6.38
2022-11-30T10:15:00.783Z,6.43
2022-11-30T10:16:00.634Z,6.44
2022-11-30T10:17:00.598Z,6.47
2022-11-30T10:18:00.577Z,6.46
2022-11-30T10:19:01.147Z,6.44
2022-11-30T10:20:00.560Z,6.43
2022-11-30T10:21:00.570Z,6.43
2022-11-30T10:22:00.530Z,6.44
2022-11-30T10:23:00.532Z,6.46
2022-11-30T10:24:00.510Z,6.47
2022-11-30T10:25:00.508Z,6.48
2022-11-30T10:26:00.498Z,6.51
2022-11-30T10:27:00.489Z,6.54
2022-11-30T10:28:12.601Z,6.58
2022-11-30T10:29:01.437Z,6.61
2022-11-30T10:30:00.424Z,6.59
2022-11-30T10:31:00.479Z,6.63
2022-11-30T10:32:00.407Z,6.68
2022-11-30T10:33:00.397Z,6.72
2022-11-30T10:34:00.377Z,6.71
2022-11-30T10:35:00.370Z,6.73
2022-11-30T10:36:00.359Z,6.72
2022-11-30T10:37:00.390Z,6.77
2022-11-30T10:38:00.329Z,6.79
2022-11-30T10:39:00.329Z,6.84
2022-11-30T10:40:00.315Z,6.84
2022-11-30T10:41:00.337Z,6.86
2022-11-30T10:42:00.340Z,6.83
2022-11-30T10:43:00.310Z,6.86
2022-11-30T10:44:00.247Z,6.87
2022-11-30T10:45:00.244Z,6.84
2022-11-30T10:46:00.249Z,6.89
2022-11-30T10:47:00.268Z,6.87
2022-11-30T10:48:00.210Z,6.86
2022-11-30T10:49:00.200Z,6.86
2022-11-30T10:50:00.192Z,6.87
2022-11-30T10:51:00.193Z,6.89
2022-11-30T10:52:00.162Z,6.84
2022-11-30T10:53:00.162Z,6.84
2022-11-30T10:54:00.139Z,6.87
2022-11-30T10:55:04.597Z,6.89
2022-11-30T10:56:00.874Z,6.94
2022-11-30T10:57:00.117Z,6.98
2022-11-30T10:58:00.117Z,6.99
2022-11-30T10:59:00.082Z,6.99
2022-11-30T11:00:00.048Z,7.02
2022-11-30T11:01:00.045Z,7.02
2022-11-30T11:02:00.129Z,7.01
2022-11-30T11:03:00.071Z,6.97
2022-11-30T11:04:00.069Z,6.94
2022-11-30T11:04:59.999Z,6.95
2022-11-30T11:05:59.968Z,6.97
2022-11-30T11:07:00.008Z,6.97
2022-11-30T11:08:05.966Z,6.99
2022-11-30T11:09:00.959Z,7.01
2022-11-30T11:09:59.919Z,7.01
2022-11-30T11:10:59.916Z,7.02
2022-11-30T11:11:59.891Z,6.98
2022-11-30T11:12:59.891Z,6.98
2022-11-30T11:13:59.879Z,6.95
2022-11-30T11:14:59.871Z,6.94
2022-11-30T11:15:59.887Z,6.94
2022-11-30T11:16:59.839Z,6.97
2022-11-30T11:17:59.816Z,6.98
2022-11-30T11:18:59.829Z,6.99
2022-11-30T11:19:59.800Z,6.97
2022-11-30T11:21:04.161Z,6.94
2022-11-30T11:22:00.760Z,6.91
2022-11-30T11:22:59.769Z,6.91
2022-11-30T11:23:59.747Z,6.91
2022-11-30T11:24:59.748Z,6.90
2022-11-30T11:25:59.708Z,6.89
2022-11-30T11:26:59.698Z,6.90
2022-11-30T11:27:59.678Z,6.89
2022-11-30T11:28:59.682Z,6.90
2022-11-30T11:29:59.668Z,6.90
2022-11-30T11:30:59.678Z,6.94
2022-11-30T11:31:59.639Z,6.95
2022-11-30T11:32:59.950Z,6.90
2022-11-30T11:33:59.650Z,6.94
2022-11-30T11:34:59.609Z,6.94
2022-11-30T11:35:59.589Z,6.94
2022-11-30T11:36:59.589Z,6.97
2022-11-30T11:37:59.559Z,6.95
2022-11-30T11:38:59.560Z,6.98
2022-11-30T11:39:59.539Z,6.98
2022-11-30T11:40:59.532Z,6.98
2022-11-30T11:41:59.499Z,6.98
2022-11-30T11:42:59.506Z,6.97
2022-11-30T11:43:59.479Z,6.98
2022-11-30T11:44:59.480Z,6.99
2022-11-30T11:45:59.482Z,7.02
2022-11-30T11:46:59.446Z,7.02
2022-11-30T11:47:59.500Z,7.02
2022-11-30T11:48:59.430Z,7.01
2022-11-30T11:49:59.411Z,7.01
2022-11-30T11:51:06.603Z,6.97
2022-11-30T11:52:00.391Z,6.97
2022-11-30T11:52:59.371Z,6.97
2022-11-30T11:53:59.529Z,6.91
2022-11-30T11:54:59.348Z,6.89
2022-11-30T11:55:59.318Z,6.87
2022-11-30T11:56:59.347Z,6.87
2022-11-30T11:57:59.307Z,6.83
2022-11-30T11:58:59.297Z,6.86
2022-11-30T11:59:59.268Z,6.86
2022-11-30T12:01:23.834Z,6.83
2022-11-30T12:02:00.257Z,6.86
2022-11-30T12:02:59.289Z,6.87
2022-11-30T12:03:59.248Z,6.86
2022-11-30T12:04:59.219Z,6.86
2022-11-30T12:05:59.231Z,6.81
2022-11-30T12:06:59.193Z,6.84
2022-11-30T12:07:59.282Z,6.81
2022-11-30T12:08:59.224Z,6.80
2022-11-30T12:09:59.159Z,6.83
2022-11-30T12:10:59.154Z,6.83
2022-11-30T12:11:59.121Z,6.77
2022-11-30T12:12:59.168Z,6.77
2022-11-30T12:13:59.091Z,6.76
2022-11-30T12:14:59.096Z,6.76
2022-11-30T12:15:59.113Z,6.76
2022-11-30T12:16:59.068Z,6.79
2022-11-30T12:17:59.055Z,6.81
2022-11-30T12:18:59.059Z,6.84
2022-11-30T12:19:59.030Z,6.87
2022-11-30T12:20:59.011Z,6.91
2022-11-30T12:21:58.992Z,6.90
2022-11-30T12:22:58.993Z,6.95
2022-11-30T12:23:58.960Z,6.97
2022-11-30T12:25:04.234Z,6.95
2022-11-30T12:25:59.939Z,6.87
2022-11-30T12:26:58.928Z,6.87
2022-11-30T12:27:58.921Z,6.89
2022-11-30T12:28:58.909Z,6.90
2022-11-30T12:29:58.891Z,6.89
2022-11-30T12:30:58.960Z,6.90
2022-11-30T12:31:58.861Z,6.86
2022-11-30T12:32:58.870Z,6.76
2022-11-30T12:33:58.843Z,6.66
2022-11-30T12:34:58.830Z,6.62
2022-11-30T12:35:58.830Z,6.56
2022-11-30T12:36:58.812Z,6.48
2022-11-30T12:37:58.831Z,6.44
2022-11-30T12:38:58.787Z,6.41
2022-11-30T12:39:58.781Z,6.36
2022-11-30T12:40:58.749Z,6.35
2022-11-30T12:41:59.354Z,6.25
2022-11-30T12:42:58.760Z,6.28
2022-11-30T12:43:58.718Z,6.29
2022-11-30T12:44:58.709Z,6.29
2022-11-30T12:45:58.682Z,6.32
2022-11-30T12:46:58.758Z,6.35
2022-11-30T12:47:58.661Z,6.40
2022-11-30T12:48:58.711Z,6.50
2022-11-30T12:49:58.631Z,6.54
2022-11-30T12:50:58.629Z,6.47
2022-11-30T12:51:58.610Z,6.50
2022-11-30T12:52:58.609Z,6.51
2022-11-30T12:53:58.600Z,6.56
2022-11-30T12:54:58.570Z,6.59
2022-11-30T12:55:58.550Z,6.61
2022-11-30T12:56:58.548Z,6.58
2022-11-30T12:57:58.528Z,6.51
2022-11-30T12:58:58.539Z,6.43
2022-11-30T12:59:58.510Z,6.36
2022-11-30T13:00:58.561Z,6.33
2022-11-30T13:01:58.599Z,6.26
2022-11-30T13:02:58.480Z,6.22
2022-11-30T13:03:58.453Z,6.10
2022-11-30T13:04:59.352Z,6.00
2022-11-30T13:05:58.429Z,5.91
2022-11-30T13:06:58.430Z,5.89
2022-11-30T13:07:58.489Z,5.81
2022-11-30T13:08:58.538Z,5.70
2022-11-30T13:09:58.370Z,5.63
2022-11-30T13:10:58.378Z,5.55
2022-11-30T13:11:58.350Z,5.48
2022-11-30T13:12:58.347Z,5.40
2022-11-30T13:13:58.329Z,5.35
2022-11-30T13:14:58.320Z,5.34
2022-11-30T13:15:58.334Z,5.31
2022-11-30T13:16:58.311Z,5.32
2022-11-30T13:17:58.279Z,5.32
2022-11-30T13:18:58.280Z,5.30
2022-11-30T13:19:58.256Z,5.28